KOLE/OLE METAR and TAF weather

Enter ICAO airport designator
Station Type Date Time Source
KOLE METAR 2019/10/15 18:35 UTC NOAA

KOLE 151835Z AUTO 22006KT 10SM CLR 12/02 A3004 RMK AO2


Station Type Date Time Source
KOLE Decoded METAR 2019/10/15 18:35 UTC NOAA

Olean Municipal, NY, United States (KOLE) 42-14N 078-22W
Oct 15, 2019 - 02:35 PM EDT / 2019.10.15 1835 UTC
Wind: from the SW (220 degrees) at 7 MPH (6 KT):0
Visibility: 10 mile(s):0
Sky conditions: clear
Temperature: 53 F (12 C)
Dew Point: 35 F (2 C)
Relative Humidity: 50%
Pressure (altimeter): 30.04 in. Hg (1017 hPa)
ob: KOLE 151835Z AUTO 22006KT 10SM CLR 12/02 A3004 RMK AO2
cycle: 18

Station Type Date Time Source
KOLE TAF UTC NOAA

Error!

Example: see airport list